Terminal Aerodrome Forecast
Issued by NWS

Home | Current Version | Previous Version | Text Only | Print | Product List | Glossary On
Versions: 1 2 3 4 5 6 7 8 9 10 11 12 13
210
FTPA31 PHFO 280007 RRA
TAFHOG
TAF
PHOG 280007Z 2800/2824 04020G28KT P6SM VCSH FEW035 SCT060
     FM280400 04015G21KT P6SM VCSH FEW030 SCT050
     FM281000 05009KT P6SM FEW030 SCT050
     FM281800 05015G21KT P6SM FEW030 SCT050
     FM282200 05020G28KT P6SM FEW035 SCT060
      AMD LTD TO VIS AND WIND 2810/2816=

USA.gov is the U.S. government's official web portal to all federal, state and local government web resources and services.